Chippewa Lake, Michigan
Current Conditions -  °F | °C
As of 10:14 PM on Monday 20 Oct 2014 (Local Time) from KRQB Reporting Station
Overcast Overcast  
Wind Chill: 43°   Ceiling: 1300
Heat Index: 46°   Visibility: 10mi
Dew Point: 46°   Wind: 7mph
Humidity: 100%   Direction: 330°NNW
Pressure: 29.93"   Gusts: NA
Location:  43.74°N, 85.3°W
Report Text: KRQB 210214Z AUTO 33006KT 10SM BKN013 OVC018 08/08 A2993 RMK AO2 T00790079
Loading
Personal Weather Stations






























Interactive Weather Map
Tropical Storm Tracking
New forecast layout! Learn more

10-Day Weather Forecast

Advertisements
Track Severe Weather on mobile